TZDO2: Arkansas Rv at SH 344 nr Tulsa, OK

                                SHEF ID:       TZDO2     Arkansas Rv at SH 344 nr Tulsa, OK
STATION TYPE:

STAGE RIV-FLOW BAT-LOAD
ft cfs volt
Ccp-Rev Ccp-Rev Ccp-Rev
(America/Chicago)
04/25 00:00 10.81 7871 12.70
04/25 01:00 10.81 7871 12.68
04/25 02:00 10.82 7913 12.66
04/25 03:00 10.82 7913 12.63
04/25 04:00 10.82 7913 12.61
04/25 05:00 10.82 7913 12.58
04/25 06:00 10.82 7913 12.57
04/25 07:00 10.82 7913 12.54
04/25 08:00 10.78 7745 12.61
04/25 09:00 10.77 7703 12.80
04/25 10:00 10.79 7787 13.09
04/25 11:00 10.79 7787 13.31
04/25 12:00 10.78 7745 13.12
04/25 13:00 10.76 7660 13.17
04/25 14:00 10.78 7745 13.07
04/25 15:00 10.79 7787 12.96
04/25 16:00 10.81 7871 12.93
04/25 17:00 10.84 7996 12.92
04/25 18:00 10.83 7955 12.93
04/25 19:00 10.84 7996 12.82
04/25 20:00 10.84 7996 12.74
04/25 21:00 10.85 8038 12.72
04/25 22:00 ---- ---- ----
04/25 23:00 ---- ---- ----
Data processed at Sun 26Apr2026 03:51 GMT

NOTICE: If you are parsing this page

Please convert to using our Data API. Starting early 2026 we will be migrating to: https://water.usace.army.mil with modern pages rendered in JavaScript. When this migration completes you will no longer be able to scrape this page! CWMSDataAPI (CDA)

Timeseries IDs (TSIDs)

TSIDs used from left to right in the data table
GILC.Stage.Inst.1Hour.0.Ccp-Rev
GILC.Flow.Inst.1Hour.0.Ccp-Rev
GILC.Volt-Battery Load.Inst.1Hour.0.Ccp-Rev

                            

All information presented herein is the property of the government of the United States of America and may be revised or deleted at any time without prior notice. Dissemination of this information without the expressed written consent of the Public Affairs Office, Tulsa District U.S. Army Corps of Engineers is strictly prohibited. These data are gathered electronically and, as presented, have NOT undergone any form of quality control. These data are NOT guaranteed to be valid or correct.